Time;durP1;ratioP1;P1;durP2;ratioP2;P2;SDS_P1;SDS_P2;PMS_P1;PMS_P2;Temp;Humidity;BMP_temperature;BMP_pressure;BME280_temperature;BME280_humidity;BME280_pressure;Samples;Min_cycle;Max_cycle;Signal;HPM_P1;HPM_P2
2022/03/20 00:02:00;;;;;;;9.63;6.35;;;5.70;99.90;;;;;;5072828;28;20044;-67
2022/03/20 00:04:25;;;;;;;9.52;6.35;;;5.70;99.90;;;;;;5072696;28;20044;-66
2022/03/20 00:06:51;;;;;;;12.52;6.30;;;5.60;99.90;;;;;;5072400;28;20087;-67
2022/03/20 00:09:16;;;;;;;12.07;6.57;;;5.60;99.90;;;;;;5073020;28;20044;-68
2022/03/20 00:11:42;;;;;;;7.60;5.60;;;5.60;99.90;;;;;;5072816;28;20044;-68
2022/03/20 00:14:08;;;;;;;14.88;7.32;;;5.60;99.90;;;;;;5071916;28;20394;-68
2022/03/20 00:16:33;;;;;;;11.10;6.95;;;5.50;99.90;;;;;;5072411;28;20032;-68
2022/03/20 00:18:59;;;;;;;11.18;7.97;;;5.50;99.90;;;;;;5054627;28;20032;-68
2022/03/20 00:21:24;;;;;;;10.30;5.88;;;5.50;99.90;;;;;;5072302;28;20119;-68
2022/03/20 00:23:50;;;;;;;9.32;5.80;;;5.40;99.90;;;;;;5072689;28;20041;-68
2022/03/20 00:26:17;;;;;;;10.43;6.10;;;5.60;99.90;;;;;;5072040;28;20071;-68
2022/03/20 00:28:44;;;;;;;9.27;6.65;;;5.50;99.90;;;;;;5072564;28;20181;-68
2022/03/20 00:31:10;;;;;;;12.23;6.38;;;5.40;99.90;;;;;;5072261;28;20037;-68
2022/03/20 00:33:36;;;;;;;10.45;6.22;;;5.40;99.90;;;;;;5072370;28;20047;-68
2022/03/20 00:36:01;;;;;;;11.35;6.72;;;5.40;99.90;;;;;;5071898;28;20461;-69
2022/03/20 00:38:27;;;;;;;10.70;6.85;;;5.30;99.90;;;;;;5038011;28;20409;-68
2022/03/20 00:40:52;;;;;;;10.43;6.40;;;5.40;99.90;;;;;;5072074;28;20131;-67
2022/03/20 00:43:18;;;;;;;10.13;6.55;;;5.40;99.90;;;;;;5072230;28;20040;-68
2022/03/20 00:45:44;;;;;;;9.57;6.13;;;5.30;99.90;;;;;;5071897;28;20041;-68
2022/03/20 00:48:10;;;;;;;9.40;6.32;;;5.20;99.90;;;;;;5054186;28;20075;-68
2022/03/20 00:50:36;;;;;;;12.85;6.68;;;5.20;99.90;;;;;;5071820;28;20048;-68
2022/03/20 00:53:01;;;;;;;11.60;6.78;;;5.20;99.90;;;;;;5072171;28;20075;-68
2022/03/20 00:55:29;;;;;;;12.13;6.32;;;5.20;99.90;;;;;;5071672;28;20064;-68
2022/03/20 00:57:54;;;;;;;16.90;6.75;;;5.20;99.90;;;;;;5037950;28;20041;-69
2022/03/20 01:00:20;;;;;;;11.88;6.85;;;5.10;99.90;;;;;;5071821;28;20490;-68
2022/03/20 01:02:46;;;;;;;11.80;7.00;;;5.20;99.90;;;;;;5071856;28;20036;-66
2022/03/20 01:05:12;;;;;;;11.15;7.57;;;5.20;99.90;;;;;;5071576;28;20409;-66
2022/03/20 01:07:38;;;;;;;12.45;7.25;;;5.20;99.90;;;;;;5053614;28;20048;-66
2022/03/20 01:10:05;;;;;;;14.57;7.07;;;5.20;99.90;;;;;;5071892;28;20120;-66
2022/03/20 01:12:33;;;;;;;14.18;7.03;;;5.10;99.90;;;;;;5071604;28;20086;-66
2022/03/20 01:15:02;;;;;;;12.48;7.68;;;5.10;99.90;;;;;;5071754;28;20040;-66
2022/03/20 01:17:28;;;;;;;13.68;7.40;;;5.10;99.90;;;;;;5071732;28;20066;-65
2022/03/20 01:19:53;;;;;;;12.75;6.55;;;5.00;99.90;;;;;;5071460;28;20139;-66
2022/03/20 01:22:19;;;;;;;13.50;7.20;;;5.00;99.90;;;;;;5071628;28;20081;-66
2022/03/20 01:24:45;;;;;;;16.58;7.13;;;5.00;99.90;;;;;;5071373;28;20045;-66
2022/03/20 01:27:12;;;;;;;15.32;8.25;;;5.00;99.90;;;;;;5071227;28;20498;-66
2022/03/20 01:29:37;;;;;;;12.30;6.60;;;4.90;99.90;;;;;;5071541;28;20041;-66
2022/03/20 01:32:03;;;;;;;11.43;7.10;;;4.80;99.90;;;;;;5071280;28;20041;-66
2022/03/20 01:34:29;;;;;;;13.48;7.25;;;4.90;99.90;;;;;;5071692;28;20037;-66
2022/03/20 01:36:55;;;;;;;11.45;6.72;;;4.80;99.90;;;;;;5071367;28;20036;-66
2022/03/20 01:39:21;;;;;;;12.57;7.70;;;4.80;99.90;;;;;;5071821;28;20484;-66
2022/03/20 01:41:47;;;;;;;9.73;7.53;;;4.80;99.90;;;;;;5071561;28;20047;-66
2022/03/20 01:44:13;;;;;;;12.40;7.05;;;4.80;99.90;;;;;;5071646;28;20062;-66
2022/03/20 01:46:39;;;;;;;11.88;6.85;;;4.70;99.90;;;;;;5071261;28;20041;-66
2022/03/20 01:49:05;;;;;;;14.13;8.18;;;4.70;99.90;;;;;;5053880;28;20048;-66
2022/03/20 01:54:15;;;;;;;16.23;8.05;;;4.60;99.90;;;;;;5071644;28;20106;-66
2022/03/20 01:56:48;;;;;;;16.52;7.70;;;4.60;99.90;;;;;;5071255;28;20517;-66
2022/03/20 01:59:15;;;;;;;13.13;7.60;;;4.60;99.90;;;;;;5071446;28;20067;-67
2022/03/20 02:01:41;;;;;;;13.05;8.00;;;4.50;99.90;;;;;;5071470;28;20033;-67
2022/03/20 02:04:06;;;;;;;14.80;7.60;;;4.50;99.90;;;;;;5071525;28;20063;-67
2022/03/20 02:06:32;;;;;;;12.23;7.80;;;4.60;99.90;;;;;;5053507;28;20182;-67
2022/03/20 02:08:57;;;;;;;14.30;7.80;;;4.60;99.90;;;;;;5053523;28;20048;-66
2022/03/20 02:11:27;;;;;;;11.75;7.68;;;4.50;99.90;;;;;;5071191;28;20052;-66
2022/03/20 02:13:53;;;;;;;12.50;8.02;;;4.50;99.90;;;;;;5071074;28;20029;-66
2022/03/20 02:16:19;;;;;;;13.50;8.48;;;4.50;99.90;;;;;;5052823;28;20125;-66
2022/03/20 02:18:46;;;;;;;13.43;8.10;;;4.40;99.90;;;;;;5071376;28;20036;-66
2022/03/20 02:21:12;;;;;;;12.88;8.88;;;4.50;99.90;;;;;;5071229;28;20041;-67
2022/03/20 02:23:37;;;;;;;12.05;7.72;;;4.40;99.90;;;;;;5071202;28;20036;-66
2022/03/20 02:26:03;;;;;;;13.57;9.02;;;4.40;99.90;;;;;;5070819;28;20040;-67
2022/03/20 02:28:29;;;;;;;15.70;9.15;;;4.40;99.90;;;;;;5071033;28;20125;-67
2022/03/20 02:30:55;;;;;;;15.88;9.10;;;4.40;99.90;;;;;;5070994;28;20076;-66
2022/03/20 02:33:23;;;;;;;14.15;8.00;;;4.40;99.90;;;;;;5071193;28;20068;-66
2022/03/20 02:35:51;;;;;;;14.93;8.57;;;4.40;99.90;;;;;;5071008;28;20044;-66
2022/03/20 02:38:18;;;;;;;17.98;9.15;;;4.40;99.90;;;;;;5074597;28;20054;-67
2022/03/20 02:40:44;;;;;;;15.60;9.10;;;4.40;99.90;;;;;;5074296;28;20335;-67
2022/03/20 02:43:10;;;;;;;15.00;9.30;;;4.40;99.90;;;;;;5074379;28;20044;-67
2022/03/20 02:45:36;;;;;;;16.55;9.55;;;4.40;99.90;;;;;;5074259;28;20040;-66
2022/03/20 02:48:06;;;;;;;19.00;9.52;;;4.40;99.90;;;;;;5074483;28;20044;-67
2022/03/20 02:50:36;;;;;;;18.10;11.13;;;4.40;99.90;;;;;;5074241;28;20036;-67
2022/03/20 02:53:13;;;;;;;19.02;9.77;;;4.40;99.90;;;;;;5056505;28;20484;-67
2022/03/20 02:55:41;;;;;;;16.40;9.80;;;4.40;99.90;;;;;;5073840;28;20055;-67
2022/03/20 02:58:10;;;;;;;13.52;9.70;;;4.40;99.90;;;;;;5074333;28;20596;-67
2022/03/20 03:00:36;;;;;;;20.90;11.60;;;4.50;99.90;;;;;;5074102;28;20040;-67
2022/03/20 03:03:04;;;;;;;15.13;9.50;;;4.40;99.90;;;;;;5074114;28;20064;-66
2022/03/20 03:05:30;;;;;;;16.02;10.38;;;4.40;99.90;;;;;;5055667;28;20044;-67
2022/03/20 03:10:57;;;;;;;23.50;11.98;;;4.30;99.90;;;;;;5073976;28;20055;-66
2022/03/20 03:13:24;;;;;;;16.98;11.35;;;4.20;99.90;;;;;;5056770;28;20044;-67
2022/03/20 03:15:55;;;;;;;18.80;10.90;;;4.30;99.90;;;;;;5073623;28;20040;-67
2022/03/20 03:18:21;;;;;;;18.63;10.57;;;4.20;99.90;;;;;;5073691;28;20090;-67
2022/03/20 03:20:49;;;;;;;16.48;11.38;;;4.20;99.90;;;;;;5073802;28;20037;-67
2022/03/20 03:23:16;;;;;;;20.20;11.35;;;4.20;99.90;;;;;;5073806;28;20086;-67
2022/03/20 03:25:42;;;;;;;18.23;11.15;;;4.10;99.90;;;;;;5073425;28;20044;-67
2022/03/20 03:28:09;;;;;;;15.30;10.23;;;4.10;99.90;;;;;;5073779;28;20049;-67
2022/03/20 03:30:40;;;;;;;21.85;13.35;;;4.10;99.90;;;;;;5073473;28;20044;-67
2022/03/20 03:33:06;;;;;;;16.30;11.35;;;4.20;99.90;;;;;;5073461;28;20078;-67
2022/03/20 03:35:46;;;;;;;16.25;10.90;;;4.20;99.90;;;;;;5055317;28;20033;-67
2022/03/20 03:38:17;;;;;;;17.42;11.38;;;4.20;99.90;;;;;;5073308;28;20486;-67
2022/03/20 03:40:44;;;;;;;16.60;10.38;;;4.20;99.90;;;;;;5073265;28;20051;-67
2022/03/20 03:43:10;;;;;;;19.30;11.95;;;4.20;99.90;;;;;;5073271;28;20045;-67
2022/03/20 03:45:38;;;;;;;18.10;12.57;;;4.20;99.90;;;;;;5072830;28;20047;-67
2022/03/20 03:48:05;;;;;;;19.95;11.32;;;4.10;99.90;;;;;;5073018;28;20158;-67
2022/03/20 03:50:30;;;;;;;17.30;12.13;;;4.00;99.90;;;;;;5073148;28;20044;-67
2022/03/20 03:52:56;;;;;;;20.20;11.35;;;4.10;99.90;;;;;;5073245;28;20041;-67
2022/03/20 03:55:21;;;;;;;17.67;12.20;;;4.10;99.90;;;;;;5072987;28;20041;-67
2022/03/20 03:57:49;;;;;;;18.88;12.68;;;4.00;99.90;;;;;;5073085;28;20028;-67
2022/03/20 04:00:20;;;;;;;18.23;12.60;;;4.10;99.90;;;;;;5072858;28;20095;-67
2022/03/20 04:02:47;;;;;;;26.90;14.32;;;4.10;99.90;;;;;;5073014;28;20071;-66
2022/03/20 04:05:15;;;;;;;19.63;13.48;;;4.00;99.90;;;;;;5072828;28;20040;-67
2022/03/20 04:07:41;;;;;;;22.80;12.88;;;4.00;99.90;;;;;;5072734;28;20045;-67
2022/03/20 04:10:07;;;;;;;23.52;13.30;;;4.00;99.90;;;;;;5072657;28;20072;-67
2022/03/20 04:12:37;;;;;;;21.08;11.80;;;4.00;99.90;;;;;;5072460;28;20051;-66
2022/03/20 04:15:07;;;;;;;18.38;12.10;;;4.00;99.90;;;;;;5054721;28;20128;-67
2022/03/20 04:17:33;;;;;;;19.10;13.15;;;4.00;99.90;;;;;;5072432;28;20044;-66
2022/03/20 04:19:59;;;;;;;21.08;13.63;;;4.00;99.90;;;;;;5072670;28;20036;-66
2022/03/20 04:22:26;;;;;;;20.33;11.95;;;4.10;99.90;;;;;;5072534;28;20081;-66
2022/03/20 04:24:52;;;;;;;21.30;12.98;;;4.10;99.90;;;;;;5054961;28;20394;-66
2022/03/20 04:27:18;;;;;;;20.17;13.20;;;4.00;99.90;;;;;;5054251;28;20036;-67
2022/03/20 04:29:44;;;;;;;20.92;12.70;;;4.00;99.90;;;;;;5072635;28;20062;-67
2022/03/20 04:32:11;;;;;;;22.08;13.38;;;4.10;99.90;;;;;;5072378;28;20036;-66
2022/03/20 04:34:38;;;;;;;22.05;13.23;;;4.00;99.90;;;;;;5072480;28;20072;-67
2022/03/20 04:37:06;;;;;;;22.08;14.10;;;3.90;99.90;;;;;;5054359;28;20032;-67
2022/03/20 04:39:34;;;;;;;21.38;13.43;;;3.90;99.90;;;;;;5072416;28;20032;-67
2022/03/20 04:41:59;;;;;;;20.13;13.05;;;3.90;99.90;;;;;;5054618;28;20436;-66
2022/03/20 04:44:25;;;;;;;21.85;14.18;;;3.90;99.90;;;;;;5054517;28;20055;-66
2022/03/20 04:46:52;;;;;;;19.23;13.48;;;3.90;99.90;;;;;;5093509;22;20387;-67
2022/03/20 04:58:29;;;;;;;20.02;13.23;;;3.80;99.90;;;;;;5052243;28;20068;-68
2022/03/20 05:00:23;;;;;;;19.83;12.55;;;3.80;99.90;;;;;;5049543;28;20115;-68
2022/03/20 05:02:49;;;;;;;20.83;13.98;;;3.80;99.90;;;;;;5052066;28;20128;-68
2022/03/20 05:05:16;;;;;;;18.85;13.25;;;3.70;99.90;;;;;;5051889;28;20056;-68
2022/03/20 05:07:42;;;;;;;22.20;14.68;;;3.80;99.90;;;;;;5050447;28;20088;-68
2022/03/20 05:15:37;;;;;;;24.20;15.45;;;3.80;99.90;;;;;;5051624;28;20047;-68
2022/03/20 05:18:07;;;;;;;27.75;14.75;;;3.80;99.90;;;;;;5051707;28;20032;-68
2022/03/20 05:20:33;;;;;;;28.60;14.60;;;3.80;99.90;;;;;;5050425;28;20143;-68
2022/03/20 05:23:00;;;;;;;24.50;15.45;;;3.70;99.90;;;;;;5050633;28;20524;-67
2022/03/20 05:25:29;;;;;;;23.33;13.70;;;3.80;99.90;;;;;;5051317;28;20036;-67
2022/03/20 05:27:56;;;;;;;22.75;14.10;;;3.70;99.90;;;;;;5051701;28;20037;-68
2022/03/20 05:30:22;;;;;;;22.98;13.18;;;3.70;99.90;;;;;;5050232;28;20099;-70
2022/03/20 05:32:48;;;;;;;21.27;14.77;;;3.70;99.90;;;;;;5051660;28;20469;-70
2022/03/20 05:35:17;;;;;;;26.70;14.52;;;3.60;99.90;;;;;;5050351;28;20506;-69
2022/03/20 05:37:44;;;;;;;24.77;15.77;;;3.60;99.90;;;;;;5051366;28;20099;-70
2022/03/20 05:40:10;;;;;;;27.92;16.25;;;3.60;99.90;;;;;;5050415;28;20485;-71
2022/03/20 05:42:36;;;;;;;27.67;15.52;;;3.60;99.90;;;;;;5050153;28;20037;-71
2022/03/20 05:45:05;;;;;;;20.88;14.57;;;3.60;99.90;;;;;;5051574;28;20124;-71
2022/03/20 05:47:32;;;;;;;23.77;16.58;;;3.50;99.90;;;;;;5049946;28;20080;-71
2022/03/20 05:50:01;;;;;;;23.38;14.93;;;3.60;99.90;;;;;;5051535;28;20033;-71
2022/03/20 05:52:31;;;;;;;24.25;15.27;;;3.60;99.90;;;;;;5050125;28;20044;-71
2022/03/20 05:55:07;;;;;;;27.13;16.23;;;3.60;99.90;;;;;;5033979;28;20090;-71
2022/03/20 06:00:25;;;;;;;25.92;16.45;;;3.50;99.90;;;;;;5051335;28;20076;-70
2022/03/20 06:02:52;;;;;;;24.15;15.15;;;3.50;99.90;;;;;;5051248;28;20037;-70
2022/03/20 06:05:18;;;;;;;24.85;15.18;;;3.50;99.90;;;;;;5050025;28;20045;-71
2022/03/20 06:07:46;;;;;;;25.70;16.67;;;3.50;99.90;;;;;;5051272;28;20063;-67
2022/03/20 06:10:17;;;;;;;24.40;15.65;;;3.50;99.90;;;;;;5051070;28;20120;-68
2022/03/20 06:12:43;;;;;;;29.13;15.70;;;3.50;99.90;;;;;;5053882;28;20044;-68
2022/03/20 06:15:10;;;;;;;24.33;16.50;;;3.60;99.90;;;;;;5054962;28;20119;-68
2022/03/20 06:17:40;;;;;;;22.08;15.32;;;3.60;99.90;;;;;;5036798;28;20450;-68
2022/03/20 06:20:07;;;;;;;23.23;16.75;;;3.50;99.90;;;;;;5053893;28;20170;-68
2022/03/20 06:22:33;;;;;;;24.40;15.63;;;3.50;99.90;;;;;;5037233;28;20110;-68
2022/03/20 06:24:59;;;;;;;27.25;15.95;;;3.60;99.90;;;;;;5054902;28;20071;-71
2022/03/20 06:27:24;;;;;;;24.77;16.60;;;3.60;99.90;;;;;;5053462;28;20517;-70
2022/03/20 06:29:50;;;;;;;26.60;17.63;;;3.60;99.90;;;;;;5053610;28;20122;-68
2022/03/20 06:32:15;;;;;;;24.85;17.25;;;3.60;99.90;;;;;;5053341;28;20186;-70
2022/03/20 06:34:42;;;;;;;28.25;16.27;;;3.80;99.90;;;;;;5054658;28;20037;-70
2022/03/20 06:37:08;;;;;;;23.85;15.27;;;3.80;99.90;;;;;;5053016;28;20556;-70
2022/03/20 06:39:34;;;;;;;29.42;17.60;;;3.90;99.90;;;;;;5054504;28;20486;-70
2022/03/20 06:42:00;;;;;;;25.65;16.10;;;3.90;99.60;;;;;;5054557;28;20045;-71
2022/03/20 06:44:26;;;;;;;20.38;14.80;;;3.90;99.10;;;;;;5053115;28;20049;-70
2022/03/20 06:46:51;;;;;;;27.02;16.83;;;4.00;98.50;;;;;;5053924;28;20124;-70
2022/03/20 06:49:17;;;;;;;27.73;18.63;;;4.10;97.80;;;;;;5054549;28;20098;-70
2022/03/20 06:51:42;;;;;;;24.02;15.73;;;4.20;97.10;;;;;;5054320;28;20120;-71
2022/03/20 06:54:08;;;;;;;23.73;15.25;;;4.20;96.50;;;;;;5054182;28;20041;-70
2022/03/20 06:56:34;;;;;;;24.35;15.43;;;4.30;96.20;;;;;;5053960;28;20082;-70
2022/03/20 06:58:59;;;;;;;27.30;16.85;;;4.40;95.30;;;;;;5053955;28;20045;-69
2022/03/20 07:01:26;;;;;;;24.38;16.40;;;4.50;94.80;;;;;;5054286;28;20049;-70
2022/03/20 07:03:52;;;;;;;24.23;16.17;;;4.50;93.60;;;;;;5054134;28;20048;-70
2022/03/20 07:06:18;;;;;;;25.17;16.35;;;4.50;92.90;;;;;;5052437;28;20410;-70
2022/03/20 07:08:44;;;;;;;23.48;15.90;;;4.70;92.20;;;;;;5036246;28;20044;-71
2022/03/20 07:11:09;;;;;;;23.92;16.13;;;4.70;91.50;;;;;;5053851;28;20512;-71
2022/03/20 07:13:52;;;;;;;25.13;15.32;;;4.70;90.70;;;;;;5054012;28;20116;-73
2022/03/20 07:16:19;;;;;;;27.58;16.92;;;4.80;90.40;;;;;;5053447;28;20051;-70
2022/03/20 07:18:48;;;;;;;26.45;15.95;;;4.80;89.70;;;;;;5053878;28;20037;-70
2022/03/20 07:21:19;;;;;;;35.17;16.15;;;4.80;89.70;;;;;;5053755;28;20036;-70
2022/03/20 07:23:45;;;;;;;23.42;16.25;;;4.80;89.60;;;;;;5053327;28;20040;-70
2022/03/20 07:31:39;;;;;;;23.95;15.30;;;5.00;86.80;;;;;;5053525;28;20045;-69
2022/03/20 07:34:05;;;;;;;24.23;16.42;;;5.10;86.60;;;;;;5053563;28;20120;-70
2022/03/20 07:36:30;;;;;;;23.00;15.52;;;5.00;85.20;;;;;;5053037;28;20090;-69
2022/03/20 07:38:56;;;;;;;24.05;16.50;;;5.00;85.60;;;;;;5052032;28;20033;-69
2022/03/20 07:41:22;;;;;;;23.95;16.05;;;5.10;85.40;;;;;;5053559;28;20036;-70
2022/03/20 07:43:48;;;;;;;26.35;17.02;;;5.20;84.70;;;;;;5052042;28;20509;-70
2022/03/20 07:46:14;;;;;;;22.40;15.75;;;5.20;83.10;;;;;;5053105;28;20037;-69
2022/03/20 07:48:40;;;;;;;27.90;16.80;;;5.40;82.00;;;;;;5053175;28;20405;-70
2022/03/20 07:51:06;;;;;;;21.80;15.05;;;5.40;81.90;;;;;;5053020;28;20124;-68
2022/03/20 07:53:32;;;;;;;28.05;16.08;;;5.50;80.90;;;;;;5053385;28;20072;-69
2022/03/20 07:55:57;;;;;;;25.00;15.75;;;5.50;80.40;;;;;;5052803;28;20116;-69
2022/03/20 07:58:23;;;;;;;22.48;16.05;;;5.70;79.90;;;;;;5053055;28;20037;-69
2022/03/20 08:00:48;;;;;;;23.63;16.35;;;5.70;78.00;;;;;;5051957;28;20075;-70
2022/03/20 08:03:15;;;;;;;28.10;17.70;;;5.80;78.60;;;;;;5052886;28;20090;-69
2022/03/20 08:05:40;;;;;;;26.85;16.75;;;5.80;77.70;;;;;;5052603;28;20036;-69
2022/03/20 08:08:07;;;;;;;25.42;17.42;;;6.00;76.80;;;;;;5052971;28;20486;-69
2022/03/20 08:10:32;;;;;;;25.50;16.98;;;6.10;75.70;;;;;;5052864;28;20053;-71
2022/03/20 08:12:58;;;;;;;22.95;17.00;;;6.10;75.60;;;;;;5052534;28;20044;-69
2022/03/20 08:15:24;;;;;;;22.00;15.75;;;6.20;75.30;;;;;;5051987;28;20506;-70
2022/03/20 08:17:51;;;;;;;31.63;18.27;;;6.30;74.20;;;;;;5052202;28;20036;-69
2022/03/20 08:20:17;;;;;;;25.65;17.67;;;6.30;73.20;;;;;;5052175;28;20033;-69
2022/03/20 08:22:43;;;;;;;24.70;16.75;;;6.30;72.70;;;;;;5051939;28;20033;-69
2022/03/20 08:25:10;;;;;;;24.20;17.83;;;6.40;72.60;;;;;;5052116;28;20039;-70
2022/03/20 08:27:53;;;;;;;23.42;16.38;;;6.20;71.40;;;;;;5051857;28;20559;-70
2022/03/20 08:30:20;;;;;;;25.75;16.42;;;6.40;71.60;;;;;;5051247;28;20045;-71
2022/03/20 08:32:47;;;;;;;23.73;17.90;;;6.40;71.60;;;;;;5051053;28;20075;-70
2022/03/20 08:35:14;;;;;;;27.75;16.88;;;6.50;71.20;;;;;;5051539;28;20076;-70
2022/03/20 08:37:48;;;;;;;27.65;18.40;;;6.50;71.30;;;;;;5050786;28;20044;-70
2022/03/20 08:40:19;;;;;;;26.42;18.48;;;6.50;70.10;;;;;;5050982;28;20036;-69
2022/03/20 08:42:46;;;;;;;26.20;18.90;;;6.40;70.10;;;;;;5051162;28;20548;-70
2022/03/20 08:45:12;;;;;;;24.52;17.08;;;6.60;70.10;;;;;;5052177;28;20037;-70
2022/03/20 08:47:38;;;;;;;31.25;17.10;;;6.70;70.50;;;;;;5051824;28;20124;-70
2022/03/20 08:50:05;;;;;;;25.10;16.85;;;6.70;69.70;;;;;;5052251;28;20034;-69
2022/03/20 08:52:30;;;;;;;24.15;18.58;;;6.80;69.90;;;;;;5050713;28;20095;-70
2022/03/20 08:54:56;;;;;;;25.15;17.13;;;6.80;68.40;;;;;;5052035;28;20037;-70
2022/03/20 08:57:25;;;;;;;25.20;19.10;;;7.00;68.70;;;;;;5051689;28;20037;-70
2022/03/20 08:59:51;;;;;;;28.45;18.40;;;7.20;67.80;;;;;;5051841;28;20033;-69
2022/03/20 09:02:17;;;;;;;28.48;19.13;;;7.20;66.90;;;;;;5052073;28;20045;-74
2022/03/20 09:04:43;;;;;;;25.52;17.65;;;7.20;66.00;;;;;;5050635;28;20056;-70
2022/03/20 09:07:08;;;;;;;30.05;17.98;;;7.10;64.00;;;;;;5040290;28;20179;-70
2022/03/20 09:09:34;;;;;;;26.35;18.00;;;7.20;64.70;;;;;;5051782;28;20041;-70
2022/03/20 09:12:01;;;;;;;30.52;19.63;;;7.20;63.80;;;;;;5051614;28;20057;-69
2022/03/20 09:14:26;;;;;;;28.05;18.67;;;7.30;63.40;;;;;;5051662;28;20036;-69
2022/03/20 09:19:37;;;;;;;28.23;18.77;;;7.40;62.70;;;;;;5051543;28;20513;-69
2022/03/20 09:22:06;;;;;;;30.05;19.40;;;7.40;62.90;;;;;;5051643;28;20064;-69
2022/03/20 09:24:32;;;;;;;32.15;22.70;;;7.50;62.30;;;;;;5051674;28;20043;-68
2022/03/20 09:27:00;;;;;;;31.67;20.55;;;7.50;61.70;;;;;;5051019;28;20083;-69
2022/03/20 09:29:26;;;;;;;29.02;19.63;;;7.40;61.30;;;;;;5051526;28;20041;-69
2022/03/20 09:31:51;;;;;;;29.80;18.65;;;7.50;61.00;;;;;;5051592;28;20120;-68
2022/03/20 09:34:17;;;;;;;29.17;21.05;;;7.60;60.40;;;;;;5051688;28;20112;-68
2022/03/20 09:36:42;;;;;;;28.70;19.35;;;7.60;60.30;;;;;;5051140;28;20033;-69
2022/03/20 09:39:08;;;;;;;30.80;20.08;;;7.70;60.40;;;;;;5051459;28;20041;-72
2022/03/20 09:41:43;;;;;;;27.83;20.27;;;7.70;60.10;;;;;;5051484;28;20037;-72
2022/03/20 09:44:09;;;;;;;26.70;19.35;;;7.80;59.50;;;;;;5050175;28;20055;-72
2022/03/20 09:46:35;;;;;;;29.08;20.30;;;7.80;59.20;;;;;;5054560;28;20102;-69
2022/03/20 09:49:03;;;;;;;28.85;19.88;;;7.80;58.90;;;;;;5055367;28;20033;-73
2022/03/20 09:51:28;;;;;;;28.73;18.98;;;7.80;58.30;;;;;;5055408;28;20087;-69
2022/03/20 09:53:54;;;;;;;27.58;20.15;;;7.90;58.50;;;;;;5055348;28;20037;-72
2022/03/20 09:56:20;;;;;;;29.48;18.80;;;7.90;58.10;;;;;;5053467;28;20049;-72
2022/03/20 09:58:45;;;;;;;30.20;19.88;;;8.00;58.60;;;;;;5055404;28;20037;-73
2022/03/20 10:01:11;;;;;;;35.15;20.38;;;8.10;58.40;;;;;;5055223;28;20037;-72
2022/03/20 10:03:37;;;;;;;29.75;20.45;;;8.20;58.50;;;;;;5054136;28;20048;-71
2022/03/20 10:06:05;;;;;;;32.55;20.40;;;8.30;58.00;;;;;;5054847;28;20041;-72
2022/03/20 10:08:31;;;;;;;28.88;20.02;;;8.20;56.90;;;;;;5054606;28;20113;-72
2022/03/20 10:11:17;;;;;;;28.98;20.52;;;8.30;57.00;;;;;;5054136;28;20215;-74
2022/03/20 10:14:04;;;;;;;29.45;21.13;;;8.30;55.50;;;;;;5052681;28;20073;-70
2022/03/20 10:16:29;;;;;;;32.35;21.77;;;8.40;56.00;;;;;;5054496;28;20065;-69
2022/03/20 10:18:55;;;;;;;28.58;21.45;;;8.60;54.90;;;;;;5054810;28;20490;-71
2022/03/20 10:21:21;;;;;;;32.33;21.13;;;8.50;54.40;;;;;;5054698;28;20044;-69
2022/03/20 10:23:46;;;;;;;32.15;21.88;;;8.40;53.70;;;;;;5054823;28;20032;-68
2022/03/20 10:26:17;;;;;;;31.63;20.25;;;8.50;54.10;;;;;;5054502;28;20055;-69
2022/03/20 10:28:48;;;;;;;36.50;22.85;;;8.50;54.10;;;;;;5053574;28;20045;-73
2022/03/20 10:31:20;;;;;;;31.50;20.90;;;8.50;53.70;;;;;;5047369;28;20060;-69
2022/03/20 10:34:07;;;;;;;28.25;20.50;;;8.70;54.20;;;;;;5038246;28;20040;-70
2022/03/20 10:36:34;;;;;;;27.05;21.55;;;8.70;54.30;;;;;;5035013;28;20041;-69
2022/03/20 10:38:59;;;;;;;32.47;22.75;;;8.80;53.80;;;;;;5049609;28;20047;-69
2022/03/20 10:41:35;;;;;;;31.10;19.50;;;8.90;53.50;;;;;;5054278;28;20052;-69
2022/03/20 10:44:01;;;;;;;29.08;21.10;;;8.90;53.70;;;;;;5054170;28;20045;-68
2022/03/20 10:46:29;;;;;;;28.35;19.15;;;9.00;53.30;;;;;;5054063;28;20118;-72
2022/03/20 10:48:57;;;;;;;29.77;20.70;;;9.00;53.20;;;;;;5054037;28;20044;-72
2022/03/20 10:51:37;;;;;;;34.67;20.92;;;9.10;52.10;;;;;;5052682;28;20037;-72
2022/03/20 10:54:09;;;;;;;31.13;21.15;;;9.00;51.80;;;;;;5054208;28;20067;-73
2022/03/20 10:56:36;;;;;;;33.38;23.15;;;9.10;52.40;;;;;;5052519;28;20040;-70
2022/03/20 10:59:15;;;;;;;29.27;20.40;;;9.20;51.80;;;;;;5053925;28;20037;-71
2022/03/20 11:01:41;;;;;;;33.25;21.30;;;9.30;52.00;;;;;;5052397;28;20407;-71
2022/03/20 11:04:08;;;;;;;32.20;22.02;;;9.30;51.50;;;;;;5052437;28;20062;-70
2022/03/20 11:06:35;;;;;;;33.85;21.63;;;9.20;51.40;;;;;;5053515;28;20064;-74
2022/03/20 11:09:04;;;;;;;29.25;20.05;;;9.30;51.50;;;;;;5053578;28;20041;-71
2022/03/20 11:11:33;;;;;;;31.85;20.02;;;9.50;52.10;;;;;;5053723;28;20056;-71
2022/03/20 11:14:00;;;;;;;29.17;20.30;;;9.50;50.90;;;;;;5053862;28;20530;-70
2022/03/20 11:16:26;;;;;;;29.42;22.05;;;9.50;50.80;;;;;;5053109;28;20518;-71
2022/03/20 11:18:54;;;;;;;31.42;20.67;;;9.60;50.70;;;;;;5052274;28;20098;-71
2022/03/20 11:21:23;;;;;;;32.95;21.30;;;9.60;50.80;;;;;;5053340;28;20569;-71
2022/03/20 11:23:51;;;;;;;34.72;21.67;;;9.70;50.20;;;;;;5053435;28;20037;-72
2022/03/20 11:26:24;;;;;;;30.20;22.67;;;9.70;49.60;;;;;;5053248;28;20041;-71
2022/03/20 11:31:17;;;;;;;32.40;20.20;;;9.80;49.20;;;;;;5093321;22;20043;-69
2022/03/20 11:33:45;;;;;;;29.60;22.67;;;9.80;49.40;;;;;;5073263;28;20040;-69
2022/03/20 11:36:12;;;;;;;36.20;22.52;;;9.80;48.30;;;;;;5072843;28;20036;-68
2022/03/20 11:38:37;;;;;;;32.30;21.13;;;9.90;49.20;;;;;;5037330;28;20033;-68
2022/03/20 11:41:07;;;;;;;32.55;22.67;;;10.00;49.40;;;;;;5054225;28;20082;-69
2022/03/20 11:43:35;;;;;;;33.72;21.63;;;9.90;48.00;;;;;;5072858;28;20055;-68
2022/03/20 11:46:34;;;;;;;31.55;21.08;;;9.90;48.30;;;;;;5072779;28;20055;-69
2022/03/20 11:49:21;;;;;;;29.60;22.50;;;10.00;48.40;;;;;;5072915;28;20047;-69
2022/03/20 11:51:59;;;;;;;37.08;23.90;;;10.00;47.90;;;;;;5072579;28;20095;-69
2022/03/20 11:54:40;;;;;;;34.95;22.05;;;10.00;47.10;;;;;;5072991;28;20045;-68
2022/03/20 11:57:24;;;;;;;28.77;20.65;;;10.10;47.60;;;;;;5072906;28;20044;-68
2022/03/20 11:59:51;;;;;;;34.28;21.67;;;10.10;47.30;;;;;;5055268;28;20147;-68
2022/03/20 12:02:18;;;;;;;33.28;22.92;;;10.30;47.40;;;;;;5038374;28;20112;-67
2022/03/20 12:05:13;;;;;;;29.63;20.15;;;10.30;47.20;;;;;;5055250;28;20133;-68
2022/03/20 12:07:58;;;;;;;30.30;20.85;;;10.40;48.30;;;;;;5072472;28;20044;-68
2022/03/20 12:10:46;;;;;;;34.60;21.13;;;10.40;47.80;;;;;;5038133;28;20044;-69
2022/03/20 12:13:28;;;;;;;32.33;22.92;;;10.50;47.70;;;;;;5072830;28;20036;-69
2022/03/20 12:15:56;;;;;;;29.90;21.35;;;10.50;47.50;;;;;;5054432;28;20036;-68
2022/03/20 12:18:22;;;;;;;35.50;23.45;;;10.60;47.00;;;;;;5054932;28;20044;-68
2022/03/20 12:20:48;;;;;;;28.75;21.50;;;10.60;47.10;;;;;;5072476;28;20048;-69
2022/03/20 12:23:29;;;;;;;32.58;22.45;;;10.50;46.90;;;;;;5054616;28;20041;-67
2022/03/20 12:26:18;;;;;;;29.95;21.45;;;10.50;46.50;;;;;;5072215;28;20048;-67
2022/03/20 12:28:44;;;;;;;33.88;20.98;;;10.50;46.70;;;;;;5057347;28;20042;-68
2022/03/20 12:31:09;;;;;;;31.88;21.35;;;10.60;46.90;;;;;;5054166;28;20123;-68
2022/03/20 12:33:35;;;;;;;28.33;19.80;;;10.80;47.20;;;;;;5054154;28;20059;-68
2022/03/20 12:36:00;;;;;;;28.58;20.58;;;10.80;47.30;;;;;;5047945;28;20045;-68
2022/03/20 12:38:33;;;;;;;27.77;20.15;;;10.90;47.10;;;;;;5043095;28;20545;-68
2022/03/20 12:41:16;;;;;;;30.42;20.67;;;10.90;46.30;;;;;;5057426;28;20044;-68
2022/03/20 12:43:54;;;;;;;30.80;22.60;;;11.00;46.90;;;;;;5034559;28;20040;-68
2022/03/20 12:46:21;;;;;;;30.08;22.08;;;11.10;46.60;;;;;;5051952;28;20094;-68
2022/03/20 12:48:51;;;;;;;30.83;20.30;;;11.20;45.70;;;;;;5034308;28;20123;-68
2022/03/20 12:51:28;;;;;;;29.08;20.50;;;11.20;45.40;;;;;;5051891;28;20088;-68
2022/03/20 12:53:54;;;;;;;31.70;20.90;;;11.20;45.60;;;;;;5033883;28;20076;-68
2022/03/20 12:56:28;;;;;;;29.08;19.98;;;11.30;45.80;;;;;;5033708;28;20075;-68
2022/03/20 12:58:53;;;;;;;;;;;11.30;45.70;;;;;;5052215;28;20507;-68
2022/03/20 13:01:19;;;;;;;34.97;21.13;;;11.20;44.70;;;;;;5034345;28;19916;-68
2022/03/20 13:03:45;;;;;;;30.35;20.23;;;11.30;45.00;;;;;;5033950;28;20580;-68
2022/03/20 13:06:10;;;;;;;29.95;20.55;;;11.30;45.20;;;;;;5033485;28;20071;-69
2022/03/20 13:08:38;;;;;;;27.63;20.15;;;11.40;45.80;;;;;;5017541;28;20044;-68
2022/03/20 13:14:08;;;;;;;31.23;21.27;;;11.40;44.70;;;;;;5033841;28;20076;-69
2022/03/20 13:16:34;;;;;;;31.05;20.85;;;11.30;45.20;;;;;;5051389;28;20091;-69
2022/03/20 13:19:00;;;;;;;28.80;21.38;;;11.20;44.90;;;;;;5051539;28;20036;-69